Terminal Aerodrome Forecast
Issued by NWS Omaha/Valley, NE

Home | Current Version | Previous Version | Text Only | Print | Product List | Glossary On
Versions: 1 2 3 4 5 6 7 8 9 10 11 12 13 14 15 16 17 18 19 20 21 22 23 24 25 26 27 28 29 30 31 32 33 34
000
FTUS43 KOAX 201120
TAFOFK
TAF
KOFK 201120Z 2012/2112 18013KT P6SM OVC015
      TEMPO 2012/2014 5SM BR BKN008
     FM201500 23012KT P6SM BKN015
     FM201700 27014KT P6SM BKN050
     FM201900 30016G24KT P6SM SCT140
     FM202300 31010KT P6SM FEW200
     FM210500 22004KT P6SM SKC=

USA.gov is the U.S. government's official web portal to all federal, state and local government web resources and services.